sensor_id;sensor_type;location;lat;lon;timestamp;P1;durP1;ratioP1;P2;durP2;ratioP2
17753;SDS011;8999;48.994;9.150;2024-02-28T00:01:57;22.65;;;13.32;;
17753;SDS011;8999;48.994;9.150;2024-02-28T00:04:29;20.52;;;12.88;;
17753;SDS011;8999;48.994;9.150;2024-02-28T00:07:00;25.05;;;13.48;;
17753;SDS011;8999;48.994;9.150;2024-02-28T00:09:32;21.98;;;13.18;;
17753;SDS011;8999;48.994;9.150;2024-02-28T00:12:04;25.23;;;13.02;;
17753;SDS011;8999;48.994;9.150;2024-02-28T00:14:36;23.42;;;12.90;;
17753;SDS011;8999;48.994;9.150;2024-02-28T00:17:09;27.42;;;14.23;;
17753;SDS011;8999;48.994;9.150;2024-02-28T00:19:41;25.70;;;14.27;;
17753;SDS011;8999;48.994;9.150;2024-02-28T00:22:12;23.63;;;13.50;;
17753;SDS011;8999;48.994;9.150;2024-02-28T00:24:44;25.70;;;14.20;;
17753;SDS011;8999;48.994;9.150;2024-02-28T00:27:16;22.35;;;13.15;;
17753;SDS011;8999;48.994;9.150;2024-02-28T00:29:48;22.80;;;12.35;;
17753;SDS011;8999;48.994;9.150;2024-02-28T00:32:21;23.48;;;13.30;;
17753;SDS011;8999;48.994;9.150;2024-02-28T00:34:52;25.25;;;12.70;;
17753;SDS011;8999;48.994;9.150;2024-02-28T00:37:24;23.38;;;12.35;;
17753;SDS011;8999;48.994;9.150;2024-02-28T00:39:56;22.75;;;12.50;;
17753;SDS011;8999;48.994;9.150;2024-02-28T00:42:27;20.10;;;11.65;;
17753;SDS011;8999;48.994;9.150;2024-02-28T00:44:59;20.60;;;11.43;;
17753;SDS011;8999;48.994;9.150;2024-02-28T00:47:32;20.65;;;11.63;;
17753;SDS011;8999;48.994;9.150;2024-02-28T00:50:04;21.40;;;11.90;;
17753;SDS011;8999;48.994;9.150;2024-02-28T00:52:36;20.88;;;12.30;;
17753;SDS011;8999;48.994;9.150;2024-02-28T00:55:07;22.92;;;12.63;;
17753;SDS011;8999;48.994;9.150;2024-02-28T00:57:39;22.27;;;11.95;;
17753;SDS011;8999;48.994;9.150;2024-02-28T01:00:11;24.30;;;13.10;;
17753;SDS011;8999;48.994;9.150;2024-02-28T01:02:44;23.27;;;12.02;;
17753;SDS011;8999;48.994;9.150;2024-02-28T01:05:16;20.65;;;11.23;;
17753;SDS011;8999;48.994;9.150;2024-02-28T01:07:48;22.20;;;11.95;;
17753;SDS011;8999;48.994;9.150;2024-02-28T01:10:19;20.77;;;12.68;;
17753;SDS011;8999;48.994;9.150;2024-02-28T01:15:24;19.63;;;12.20;;
17753;SDS011;8999;48.994;9.150;2024-02-28T01:17:57;25.08;;;13.02;;
17753;SDS011;8999;48.994;9.150;2024-02-28T01:20:28;23.55;;;11.80;;
17753;SDS011;8999;48.994;9.150;2024-02-28T01:23:03;21.70;;;12.38;;
17753;SDS011;8999;48.994;9.150;2024-02-28T01:25:34;23.38;;;13.07;;
17753;SDS011;8999;48.994;9.150;2024-02-28T01:28:06;20.73;;;12.52;;
17753;SDS011;8999;48.994;9.150;2024-02-28T01:30:38;23.58;;;12.43;;
17753;SDS011;8999;48.994;9.150;2024-02-28T01:33:11;21.23;;;12.68;;
17753;SDS011;8999;48.994;9.150;2024-02-28T01:35:42;22.38;;;12.00;;
17753;SDS011;8999;48.994;9.150;2024-02-28T01:38:14;22.38;;;12.52;;
17753;SDS011;8999;48.994;9.150;2024-02-28T01:40:46;20.45;;;11.75;;
17753;SDS011;8999;48.994;9.150;2024-02-28T01:43:18;21.75;;;13.25;;
17753;SDS011;8999;48.994;9.150;2024-02-28T01:45:50;23.60;;;12.95;;
17753;SDS011;8999;48.994;9.150;2024-02-28T01:48:23;25.48;;;13.07;;
17753;SDS011;8999;48.994;9.150;2024-02-28T01:50:55;24.08;;;13.35;;
17753;SDS011;8999;48.994;9.150;2024-02-28T01:53:27;23.25;;;12.45;;
17753;SDS011;8999;48.994;9.150;2024-02-28T01:55:58;23.90;;;13.30;;
17753;SDS011;8999;48.994;9.150;2024-02-28T01:58:31;23.55;;;13.30;;
17753;SDS011;8999;48.994;9.150;2024-02-28T02:01:03;20.27;;;12.15;;
17753;SDS011;8999;48.994;9.150;2024-02-28T02:03:38;25.25;;;13.38;;
17753;SDS011;8999;48.994;9.150;2024-02-28T02:06:09;24.90;;;13.45;;
17753;SDS011;8999;48.994;9.150;2024-02-28T02:08:41;23.33;;;13.20;;
17753;SDS011;8999;48.994;9.150;2024-02-28T02:11:13;26.45;;;12.90;;
17753;SDS011;8999;48.994;9.150;2024-02-28T02:13:48;23.05;;;12.60;;
17753;SDS011;8999;48.994;9.150;2024-02-28T02:16:20;20.20;;;12.13;;
17753;SDS011;8999;48.994;9.150;2024-02-28T02:18:57;26.17;;;13.93;;
17753;SDS011;8999;48.994;9.150;2024-02-28T02:21:30;20.65;;;12.50;;
17753;SDS011;8999;48.994;9.150;2024-02-28T02:24:03;21.75;;;12.30;;
17753;SDS011;8999;48.994;9.150;2024-02-28T02:26:36;19.02;;;10.98;;
17753;SDS011;8999;48.994;9.150;2024-02-28T02:29:07;18.90;;;11.10;;
17753;SDS011;8999;48.994;9.150;2024-02-28T02:31:39;23.40;;;12.77;;
17753;SDS011;8999;48.994;9.150;2024-02-28T02:34:11;25.55;;;13.90;;
17753;SDS011;8999;48.994;9.150;2024-02-28T02:36:43;24.48;;;13.30;;
17753;SDS011;8999;48.994;9.150;2024-02-28T02:39:16;20.67;;;13.00;;
17753;SDS011;8999;48.994;9.150;2024-02-28T02:41:47;24.65;;;13.63;;
17753;SDS011;8999;48.994;9.150;2024-02-28T02:44:19;26.58;;;13.40;;
17753;SDS011;8999;48.994;9.150;2024-02-28T02:46:50;23.05;;;12.85;;
17753;SDS011;8999;48.994;9.150;2024-02-28T02:49:22;24.38;;;13.48;;
17753;SDS011;8999;48.994;9.150;2024-02-28T02:51:54;24.05;;;12.70;;
17753;SDS011;8999;48.994;9.150;2024-02-28T02:54:27;20.00;;;12.75;;
17753;SDS011;8999;48.994;9.150;2024-02-28T02:56:58;21.77;;;12.23;;
17753;SDS011;8999;48.994;9.150;2024-02-28T02:59:30;19.98;;;12.65;;
17753;SDS011;8999;48.994;9.150;2024-02-28T03:02:02;19.77;;;11.13;;
17753;SDS011;8999;48.994;9.150;2024-02-28T03:04:34;20.95;;;11.88;;
17753;SDS011;8999;48.994;9.150;2024-02-28T03:07:05;22.95;;;12.55;;
17753;SDS011;8999;48.994;9.150;2024-02-28T03:09:38;24.30;;;12.52;;
17753;SDS011;8999;48.994;9.150;2024-02-28T03:12:10;22.58;;;11.45;;
17753;SDS011;8999;48.994;9.150;2024-02-28T03:14:42;22.00;;;12.35;;
17753;SDS011;8999;48.994;9.150;2024-02-28T03:17:13;20.00;;;11.50;;
17753;SDS011;8999;48.994;9.150;2024-02-28T03:19:46;21.70;;;11.55;;
17753;SDS011;8999;48.994;9.150;2024-02-28T03:22:17;19.90;;;11.70;;
17753;SDS011;8999;48.994;9.150;2024-02-28T03:24:50;21.88;;;11.45;;
17753;SDS011;8999;48.994;9.150;2024-02-28T03:27:22;22.98;;;12.10;;
17753;SDS011;8999;48.994;9.150;2024-02-28T03:29:53;19.08;;;11.00;;
17753;SDS011;8999;48.994;9.150;2024-02-28T03:32:25;17.60;;;10.68;;
17753;SDS011;8999;48.994;9.150;2024-02-28T03:34:57;21.33;;;11.77;;
17753;SDS011;8999;48.994;9.150;2024-02-28T03:37:29;20.80;;;11.95;;
17753;SDS011;8999;48.994;9.150;2024-02-28T03:40:02;19.58;;;10.82;;
17753;SDS011;8999;48.994;9.150;2024-02-28T03:42:34;16.38;;;10.25;;
17753;SDS011;8999;48.994;9.150;2024-02-28T03:45:06;20.65;;;10.82;;
17753;SDS011;8999;48.994;9.150;2024-02-28T03:47:38;19.05;;;10.95;;
17753;SDS011;8999;48.994;9.150;2024-02-28T03:50:09;21.10;;;11.43;;
17753;SDS011;8999;48.994;9.150;2024-02-28T03:52:41;18.77;;;10.68;;
17753;SDS011;8999;48.994;9.150;2024-02-28T03:55:14;17.75;;;10.85;;
17753;SDS011;8999;48.994;9.150;2024-02-28T03:57:47;18.45;;;11.38;;
17753;SDS011;8999;48.994;9.150;2024-02-28T04:00:19;19.77;;;10.82;;
17753;SDS011;8999;48.994;9.150;2024-02-28T04:02:51;18.33;;;10.95;;
17753;SDS011;8999;48.994;9.150;2024-02-28T04:05:23;17.23;;;11.05;;
17753;SDS011;8999;48.994;9.150;2024-02-28T04:07:54;19.60;;;11.40;;
17753;SDS011;8999;48.994;9.150;2024-02-28T04:10:27;19.15;;;10.50;;
17753;SDS011;8999;48.994;9.150;2024-02-28T04:12:59;19.27;;;11.43;;
17753;SDS011;8999;48.994;9.150;2024-02-28T04:15:31;16.83;;;11.02;;
17753;SDS011;8999;48.994;9.150;2024-02-28T04:18:02;20.23;;;11.82;;
17753;SDS011;8999;48.994;9.150;2024-02-28T04:20:34;21.27;;;11.43;;
17753;SDS011;8999;48.994;9.150;2024-02-28T04:23:06;20.27;;;11.88;;
17753;SDS011;8999;48.994;9.150;2024-02-28T04:25:38;21.35;;;11.27;;
17753;SDS011;8999;48.994;9.150;2024-02-28T04:28:10;19.23;;;11.35;;
17753;SDS011;8999;48.994;9.150;2024-02-28T04:30:42;20.85;;;12.10;;
17753;SDS011;8999;48.994;9.150;2024-02-28T04:33:14;18.70;;;11.30;;
17753;SDS011;8999;48.994;9.150;2024-02-28T04:35:45;24.00;;;11.95;;
17753;SDS011;8999;48.994;9.150;2024-02-28T04:38:17;18.98;;;11.38;;
17753;SDS011;8999;48.994;9.150;2024-02-28T04:40:50;17.23;;;10.50;;
17753;SDS011;8999;48.994;9.150;2024-02-28T04:43:22;18.65;;;9.95;;
17753;SDS011;8999;48.994;9.150;2024-02-28T04:45:53;21.13;;;11.65;;
17753;SDS011;8999;48.994;9.150;2024-02-28T04:48:25;19.58;;;10.55;;
17753;SDS011;8999;48.994;9.150;2024-02-28T04:50:57;21.00;;;11.68;;
17753;SDS011;8999;48.994;9.150;2024-02-28T04:53:28;20.10;;;11.57;;
17753;SDS011;8999;48.994;9.150;2024-02-28T04:56:01;21.20;;;11.68;;
17753;SDS011;8999;48.994;9.150;2024-02-28T04:58:33;22.80;;;13.60;;
17753;SDS011;8999;48.994;9.150;2024-02-28T05:01:05;24.20;;;14.20;;
17753;SDS011;8999;48.994;9.150;2024-02-28T05:03:36;18.98;;;11.93;;
17753;SDS011;8999;48.994;9.150;2024-02-28T05:06:08;17.50;;;10.93;;
17753;SDS011;8999;48.994;9.150;2024-02-28T05:08:39;21.42;;;12.20;;
17753;SDS011;8999;48.994;9.150;2024-02-28T05:11:13;20.00;;;11.82;;
17753;SDS011;8999;48.994;9.150;2024-02-28T05:13:45;20.48;;;12.38;;
17753;SDS011;8999;48.994;9.150;2024-02-28T05:16:16;20.58;;;11.93;;
17753;SDS011;8999;48.994;9.150;2024-02-28T05:18:48;21.50;;;12.73;;
17753;SDS011;8999;48.994;9.150;2024-02-28T05:21:20;20.30;;;11.57;;
17753;SDS011;8999;48.994;9.150;2024-02-28T05:23:51;19.80;;;12.52;;
17753;SDS011;8999;48.994;9.150;2024-02-28T05:26:24;19.17;;;12.07;;
17753;SDS011;8999;48.994;9.150;2024-02-28T05:28:56;25.17;;;12.48;;
17753;SDS011;8999;48.994;9.150;2024-02-28T05:31:28;21.58;;;12.10;;
17753;SDS011;8999;48.994;9.150;2024-02-28T05:34:00;28.15;;;13.68;;
17753;SDS011;8999;48.994;9.150;2024-02-28T05:36:32;21.25;;;12.10;;
17753;SDS011;8999;48.994;9.150;2024-02-28T05:39:04;22.35;;;12.18;;
17753;SDS011;8999;48.994;9.150;2024-02-28T05:41:37;24.25;;;12.15;;
17753;SDS011;8999;48.994;9.150;2024-02-28T05:44:09;21.13;;;12.02;;
17753;SDS011;8999;48.994;9.150;2024-02-28T05:46:40;19.67;;;12.50;;
17753;SDS011;8999;48.994;9.150;2024-02-28T05:49:12;24.17;;;12.85;;
17753;SDS011;8999;48.994;9.150;2024-02-28T05:51:44;24.25;;;14.18;;
17753;SDS011;8999;48.994;9.150;2024-02-28T05:54:17;23.67;;;13.35;;
17753;SDS011;8999;48.994;9.150;2024-02-28T05:56:50;27.10;;;14.05;;
17753;SDS011;8999;48.994;9.150;2024-02-28T05:59:22;27.92;;;14.65;;
17753;SDS011;8999;48.994;9.150;2024-02-28T06:01:55;26.27;;;13.73;;
17753;SDS011;8999;48.994;9.150;2024-02-28T06:04:27;25.20;;;14.27;;
17753;SDS011;8999;48.994;9.150;2024-02-28T06:06:58;23.88;;;14.85;;
17753;SDS011;8999;48.994;9.150;2024-02-28T06:09:30;24.05;;;13.52;;
17753;SDS011;8999;48.994;9.150;2024-02-28T06:12:05;26.83;;;13.90;;
17753;SDS011;8999;48.994;9.150;2024-02-28T06:14:37;26.50;;;14.85;;
17753;SDS011;8999;48.994;9.150;2024-02-28T06:17:08;29.00;;;15.90;;
17753;SDS011;8999;48.994;9.150;2024-02-28T06:19:40;31.75;;;15.90;;
17753;SDS011;8999;48.994;9.150;2024-02-28T06:22:12;25.98;;;14.68;;
17753;SDS011;8999;48.994;9.150;2024-02-28T06:24:44;26.27;;;14.95;;
17753;SDS011;8999;48.994;9.150;2024-02-28T06:27:17;25.58;;;14.57;;
17753;SDS011;8999;48.994;9.150;2024-02-28T06:29:48;25.88;;;14.32;;
17753;SDS011;8999;48.994;9.150;2024-02-28T06:32:20;25.67;;;14.75;;
17753;SDS011;8999;48.994;9.150;2024-02-28T06:34:54;25.98;;;14.88;;
17753;SDS011;8999;48.994;9.150;2024-02-28T06:37:26;29.83;;;15.55;;
17753;SDS011;8999;48.994;9.150;2024-02-28T06:39:58;26.15;;;14.35;;
17753;SDS011;8999;48.994;9.150;2024-02-28T06:42:31;29.75;;;15.38;;
17753;SDS011;8999;48.994;9.150;2024-02-28T06:45:04;27.42;;;13.43;;
17753;SDS011;8999;48.994;9.150;2024-02-28T06:47:37;25.77;;;13.13;;
17753;SDS011;8999;48.994;9.150;2024-02-28T06:50:09;24.98;;;13.57;;
17753;SDS011;8999;48.994;9.150;2024-02-28T06:52:41;24.55;;;13.13;;
17753;SDS011;8999;48.994;9.150;2024-02-28T06:55:12;22.92;;;13.15;;
17753;SDS011;8999;48.994;9.150;2024-02-28T06:57:45;26.55;;;14.38;;
17753;SDS011;8999;48.994;9.150;2024-02-28T07:00:17;28.27;;;14.95;;
17753;SDS011;8999;48.994;9.150;2024-02-28T07:02:49;29.98;;;15.48;;
17753;SDS011;8999;48.994;9.150;2024-02-28T07:05:21;25.50;;;14.85;;
17753;SDS011;8999;48.994;9.150;2024-02-28T07:07:54;28.70;;;14.63;;
17753;SDS011;8999;48.994;9.150;2024-02-28T07:10:26;27.00;;;15.18;;
17753;SDS011;8999;48.994;9.150;2024-02-28T07:13:02;29.38;;;15.30;;
17753;SDS011;8999;48.994;9.150;2024-02-28T07:15:36;25.08;;;13.65;;
17753;SDS011;8999;48.994;9.150;2024-02-28T07:18:08;28.73;;;14.43;;
17753;SDS011;8999;48.994;9.150;2024-02-28T07:20:40;25.63;;;14.93;;
17753;SDS011;8999;48.994;9.150;2024-02-28T07:23:11;26.25;;;14.38;;
17753;SDS011;8999;48.994;9.150;2024-02-28T07:25:43;25.13;;;13.55;;
17753;SDS011;8999;48.994;9.150;2024-02-28T07:28:16;25.42;;;13.45;;
17753;SDS011;8999;48.994;9.150;2024-02-28T07:30:48;29.05;;;14.80;;
17753;SDS011;8999;48.994;9.150;2024-02-28T07:33:19;28.13;;;14.55;;
17753;SDS011;8999;48.994;9.150;2024-02-28T07:35:51;27.90;;;13.98;;
17753;SDS011;8999;48.994;9.150;2024-02-28T07:38:23;28.20;;;13.95;;
17753;SDS011;8999;48.994;9.150;2024-02-28T07:40:57;27.30;;;15.18;;
17753;SDS011;8999;48.994;9.150;2024-02-28T07:43:30;26.83;;;14.63;;
17753;SDS011;8999;48.994;9.150;2024-02-28T07:46:07;27.27;;;14.45;;
17753;SDS011;8999;48.994;9.150;2024-02-28T07:48:39;27.30;;;14.45;;
17753;SDS011;8999;48.994;9.150;2024-02-28T07:51:11;31.00;;;17.08;;
17753;SDS011;8999;48.994;9.150;2024-02-28T07:53:43;24.52;;;14.13;;
17753;SDS011;8999;48.994;9.150;2024-02-28T07:56:18;26.75;;;14.93;;
17753;SDS011;8999;48.994;9.150;2024-02-28T07:58:52;27.50;;;14.32;;
17753;SDS011;8999;48.994;9.150;2024-02-28T08:01:25;26.27;;;14.63;;
17753;SDS011;8999;48.994;9.150;2024-02-28T08:03:57;27.02;;;14.70;;
17753;SDS011;8999;48.994;9.150;2024-02-28T08:06:30;26.45;;;14.52;;
17753;SDS011;8999;48.994;9.150;2024-02-28T08:09:03;27.95;;;15.48;;
17753;SDS011;8999;48.994;9.150;2024-02-28T08:11:36;26.13;;;14.32;;
17753;SDS011;8999;48.994;9.150;2024-02-28T08:14:09;27.42;;;15.18;;
17753;SDS011;8999;48.994;9.150;2024-02-28T08:16:41;27.23;;;14.98;;
17753;SDS011;8999;48.994;9.150;2024-02-28T08:19:13;28.60;;;14.32;;
17753;SDS011;8999;48.994;9.150;2024-02-28T08:21:47;25.33;;;14.10;;
17753;SDS011;8999;48.994;9.150;2024-02-28T08:24:20;27.05;;;14.82;;
17753;SDS011;8999;48.994;9.150;2024-02-28T08:26:51;27.45;;;13.88;;
17753;SDS011;8999;48.994;9.150;2024-02-28T08:29:28;29.20;;;15.18;;
17753;SDS011;8999;48.994;9.150;2024-02-28T08:32:03;29.10;;;15.38;;
17753;SDS011;8999;48.994;9.150;2024-02-28T08:34:35;24.75;;;13.70;;
17753;SDS011;8999;48.994;9.150;2024-02-28T08:37:06;26.05;;;14.90;;
17753;SDS011;8999;48.994;9.150;2024-02-28T08:39:38;28.48;;;15.13;;
17753;SDS011;8999;48.994;9.150;2024-02-28T08:42:10;27.40;;;14.82;;
17753;SDS011;8999;48.994;9.150;2024-02-28T08:44:43;29.25;;;14.70;;
17753;SDS011;8999;48.994;9.150;2024-02-28T08:47:18;28.17;;;14.77;;
17753;SDS011;8999;48.994;9.150;2024-02-28T08:49:50;27.38;;;14.30;;
17753;SDS011;8999;48.994;9.150;2024-02-28T08:52:21;29.15;;;14.38;;
17753;SDS011;8999;48.994;9.150;2024-02-28T08:54:53;27.95;;;14.27;;
17753;SDS011;8999;48.994;9.150;2024-02-28T08:57:25;27.77;;;14.88;;
17753;SDS011;8999;48.994;9.150;2024-02-28T08:59:59;28.25;;;15.10;;
17753;SDS011;8999;48.994;9.150;2024-02-28T09:02:31;28.08;;;14.93;;
17753;SDS011;8999;48.994;9.150;2024-02-28T09:05:03;28.23;;;15.68;;
17753;SDS011;8999;48.994;9.150;2024-02-28T09:07:34;25.70;;;14.80;;
17753;SDS011;8999;48.994;9.150;2024-02-28T09:10:07;32.05;;;17.08;;
17753;SDS011;8999;48.994;9.150;2024-02-28T09:12:39;27.65;;;15.15;;
17753;SDS011;8999;48.994;9.150;2024-02-28T09:15:12;28.13;;;14.50;;
17753;SDS011;8999;48.994;9.150;2024-02-28T09:17:44;32.63;;;14.38;;
17753;SDS011;8999;48.994;9.150;2024-02-28T09:20:15;26.58;;;15.75;;
17753;SDS011;8999;48.994;9.150;2024-02-28T09:22:47;31.00;;;16.50;;
17753;SDS011;8999;48.994;9.150;2024-02-28T09:25:19;28.20;;;15.23;;
17753;SDS011;8999;48.994;9.150;2024-02-28T09:27:51;26.48;;;14.50;;
17753;SDS011;8999;48.994;9.150;2024-02-28T09:30:24;27.25;;;14.77;;
17753;SDS011;8999;48.994;9.150;2024-02-28T09:32:56;29.55;;;15.73;;
17753;SDS011;8999;48.994;9.150;2024-02-28T09:35:27;27.48;;;14.40;;
17753;SDS011;8999;48.994;9.150;2024-02-28T09:37:59;25.80;;;14.68;;
17753;SDS011;8999;48.994;9.150;2024-02-28T09:40:31;27.23;;;14.80;;
17753;SDS011;8999;48.994;9.150;2024-02-28T09:43:03;27.05;;;15.00;;
17753;SDS011;8999;48.994;9.150;2024-02-28T09:45:36;28.48;;;14.77;;
17753;SDS011;8999;48.994;9.150;2024-02-28T09:48:08;25.42;;;14.10;;
17753;SDS011;8999;48.994;9.150;2024-02-28T09:50:40;27.17;;;14.73;;
17753;SDS011;8999;48.994;9.150;2024-02-28T09:53:12;26.13;;;14.68;;
17753;SDS011;8999;48.994;9.150;2024-02-28T09:55:44;27.67;;;13.98;;
17753;SDS011;8999;48.994;9.150;2024-02-28T09:58:16;27.10;;;14.63;;
17753;SDS011;8999;48.994;9.150;2024-02-28T10:00:49;23.50;;;13.98;;
17753;SDS011;8999;48.994;9.150;2024-02-28T10:03:21;26.65;;;14.35;;
17753;SDS011;8999;48.994;9.150;2024-02-28T10:05:54;22.85;;;13.68;;
17753;SDS011;8999;48.994;9.150;2024-02-28T10:08:25;32.70;;;16.52;;
17753;SDS011;8999;48.994;9.150;2024-02-28T10:10:59;28.52;;;16.52;;
17753;SDS011;8999;48.994;9.150;2024-02-28T10:13:30;44.05;;;19.77;;
17753;SDS011;8999;48.994;9.150;2024-02-28T10:16:06;24.55;;;13.95;;
17753;SDS011;8999;48.994;9.150;2024-02-28T10:18:38;26.35;;;14.65;;
17753;SDS011;8999;48.994;9.150;2024-02-28T10:21:10;28.35;;;14.73;;
17753;SDS011;8999;48.994;9.150;2024-02-28T10:23:42;35.00;;;16.70;;
17753;SDS011;8999;48.994;9.150;2024-02-28T10:26:14;26.38;;;14.23;;
17753;SDS011;8999;48.994;9.150;2024-02-28T10:28:45;24.45;;;13.55;;
17753;SDS011;8999;48.994;9.150;2024-02-28T10:31:18;24.08;;;12.90;;
17753;SDS011;8999;48.994;9.150;2024-02-28T10:33:52;20.98;;;12.10;;
17753;SDS011;8999;48.994;9.150;2024-02-28T10:36:24;25.23;;;13.02;;
17753;SDS011;8999;48.994;9.150;2024-02-28T10:38:55;25.70;;;13.70;;
17753;SDS011;8999;48.994;9.150;2024-02-28T10:41:27;23.70;;;12.95;;
17753;SDS011;8999;48.994;9.150;2024-02-28T10:43:59;25.52;;;13.18;;
17753;SDS011;8999;48.994;9.150;2024-02-28T10:46:33;29.83;;;15.32;;
17753;SDS011;8999;48.994;9.150;2024-02-28T10:49:04;23.23;;;13.65;;
17753;SDS011;8999;48.994;9.150;2024-02-28T10:51:36;22.45;;;12.93;;
17753;SDS011;8999;48.994;9.150;2024-02-28T10:54:08;26.17;;;13.57;;
17753;SDS011;8999;48.994;9.150;2024-02-28T10:56:41;23.30;;;12.82;;
17753;SDS011;8999;48.994;9.150;2024-02-28T10:59:13;25.20;;;13.60;;
17753;SDS011;8999;48.994;9.150;2024-02-28T11:01:46;24.70;;;13.50;;
17753;SDS011;8999;48.994;9.150;2024-02-28T11:04:18;26.08;;;14.25;;
17753;SDS011;8999;48.994;9.150;2024-02-28T11:06:51;25.40;;;13.98;;
17753;SDS011;8999;48.994;9.150;2024-02-28T11:09:23;26.38;;;13.80;;
17753;SDS011;8999;48.994;9.150;2024-02-28T11:11:56;24.35;;;13.35;;
17753;SDS011;8999;48.994;9.150;2024-02-28T11:14:28;26.05;;;13.25;;
17753;SDS011;8999;48.994;9.150;2024-02-28T11:17:01;33.63;;;17.52;;
17753;SDS011;8999;48.994;9.150;2024-02-28T11:19:33;43.28;;;19.08;;
17753;SDS011;8999;48.994;9.150;2024-02-28T11:22:05;36.40;;;18.23;;
17753;SDS011;8999;48.994;9.150;2024-02-28T11:24:37;26.13;;;14.10;;
17753;SDS011;8999;48.994;9.150;2024-02-28T11:27:11;38.33;;;18.13;;
17753;SDS011;8999;48.994;9.150;2024-02-28T11:29:45;29.15;;;14.88;;
17753;SDS011;8999;48.994;9.150;2024-02-28T11:32:18;21.17;;;12.70;;
17753;SDS011;8999;48.994;9.150;2024-02-28T11:34:50;24.35;;;13.32;;
17753;SDS011;8999;48.994;9.150;2024-02-28T11:37:22;27.48;;;14.90;;
17753;SDS011;8999;48.994;9.150;2024-02-28T11:39:54;26.15;;;14.23;;
17753;SDS011;8999;48.994;9.150;2024-02-28T11:42:25;22.10;;;12.32;;
17753;SDS011;8999;48.994;9.150;2024-02-28T11:44:58;25.55;;;12.95;;
17753;SDS011;8999;48.994;9.150;2024-02-28T11:47:35;23.00;;;13.25;;
17753;SDS011;8999;48.994;9.150;2024-02-28T11:50:07;24.70;;;13.18;;
17753;SDS011;8999;48.994;9.150;2024-02-28T11:52:39;20.25;;;11.73;;
17753;SDS011;8999;48.994;9.150;2024-02-28T11:55:11;22.67;;;12.73;;
17753;SDS011;8999;48.994;9.150;2024-02-28T11:57:42;24.20;;;12.20;;
17753;SDS011;8999;48.994;9.150;2024-02-28T12:00:14;25.02;;;12.93;;
17753;SDS011;8999;48.994;9.150;2024-02-28T12:02:48;24.00;;;12.85;;
17753;SDS011;8999;48.994;9.150;2024-02-28T12:05:19;23.25;;;12.85;;
17753;SDS011;8999;48.994;9.150;2024-02-28T12:07:52;20.27;;;12.15;;
17753;SDS011;8999;48.994;9.150;2024-02-28T12:10:25;24.27;;;12.57;;
17753;SDS011;8999;48.994;9.150;2024-02-28T12:12:58;27.15;;;12.95;;
17753;SDS011;8999;48.994;9.150;2024-02-28T12:15:30;23.90;;;12.75;;
17753;SDS011;8999;48.994;9.150;2024-02-28T12:18:08;23.58;;;11.82;;
17753;SDS011;8999;48.994;9.150;2024-02-28T12:20:40;25.98;;;13.90;;
17753;SDS011;8999;48.994;9.150;2024-02-28T12:23:12;22.05;;;12.07;;
17753;SDS011;8999;48.994;9.150;2024-02-28T12:25:44;22.92;;;13.02;;
17753;SDS011;8999;48.994;9.150;2024-02-28T12:28:16;19.92;;;11.63;;
17753;SDS011;8999;48.994;9.150;2024-02-28T12:30:47;24.77;;;12.02;;
17753;SDS011;8999;48.994;9.150;2024-02-28T12:33:20;23.27;;;12.63;;
17753;SDS011;8999;48.994;9.150;2024-02-28T12:35:52;21.35;;;11.98;;
17753;SDS011;8999;48.994;9.150;2024-02-28T12:38:24;22.23;;;11.68;;
17753;SDS011;8999;48.994;9.150;2024-02-28T12:40:56;22.35;;;12.43;;
17753;SDS011;8999;48.994;9.150;2024-02-28T12:43:29;22.15;;;11.93;;
17753;SDS011;8999;48.994;9.150;2024-02-28T12:46:01;22.85;;;11.73;;
17753;SDS011;8999;48.994;9.150;2024-02-28T12:48:37;21.55;;;11.73;;
17753;SDS011;8999;48.994;9.150;2024-02-28T12:51:10;21.02;;;11.45;;
17753;SDS011;8999;48.994;9.150;2024-02-28T12:53:42;21.42;;;11.02;;
17753;SDS011;8999;48.994;9.150;2024-02-28T12:56:16;19.33;;;10.32;;
17753;SDS011;8999;48.994;9.150;2024-02-28T12:58:47;17.70;;;11.27;;
17753;SDS011;8999;48.994;9.150;2024-02-28T13:01:19;22.63;;;11.50;;
17753;SDS011;8999;48.994;9.150;2024-02-28T13:03:52;20.20;;;11.70;;
17753;SDS011;8999;48.994;9.150;2024-02-28T13:06:24;20.58;;;12.00;;
17753;SDS011;8999;48.994;9.150;2024-02-28T13:08:56;15.95;;;9.70;;
17753;SDS011;8999;48.994;9.150;2024-02-28T13:11:27;15.55;;;8.85;;
17753;SDS011;8999;48.994;9.150;2024-02-28T13:13:59;16.38;;;8.88;;
17753;SDS011;8999;48.994;9.150;2024-02-28T13:16:31;15.23;;;8.85;;
17753;SDS011;8999;48.994;9.150;2024-02-28T13:19:04;16.23;;;9.55;;
17753;SDS011;8999;48.994;9.150;2024-02-28T13:21:36;16.83;;;10.10;;
17753;SDS011;8999;48.994;9.150;2024-02-28T13:24:08;15.90;;;9.35;;
17753;SDS011;8999;48.994;9.150;2024-02-28T13:26:39;14.32;;;8.98;;
17753;SDS011;8999;48.994;9.150;2024-02-28T13:29:11;16.35;;;9.52;;
17753;SDS011;8999;48.994;9.150;2024-02-28T13:31:43;17.50;;;9.88;;
17753;SDS011;8999;48.994;9.150;2024-02-28T13:34:16;14.95;;;8.73;;
17753;SDS011;8999;48.994;9.150;2024-02-28T13:36:47;17.25;;;8.93;;
17753;SDS011;8999;48.994;9.150;2024-02-28T13:39:19;16.08;;;9.13;;
17753;SDS011;8999;48.994;9.150;2024-02-28T13:41:53;16.63;;;9.07;;
17753;SDS011;8999;48.994;9.150;2024-02-28T13:44:25;14.90;;;8.52;;
17753;SDS011;8999;48.994;9.150;2024-02-28T13:46:57;14.88;;;8.85;;
17753;SDS011;8999;48.994;9.150;2024-02-28T13:49:30;14.02;;;8.23;;
17753;SDS011;8999;48.994;9.150;2024-02-28T13:52:02;14.98;;;8.68;;
17753;SDS011;8999;48.994;9.150;2024-02-28T13:54:34;14.98;;;8.65;;
17753;SDS011;8999;48.994;9.150;2024-02-28T13:57:06;17.75;;;9.30;;
17753;SDS011;8999;48.994;9.150;2024-02-28T13:59:37;14.85;;;9.10;;
17753;SDS011;8999;48.994;9.150;2024-02-28T14:02:09;16.15;;;9.55;;
17753;SDS011;8999;48.994;9.150;2024-02-28T14:04:43;16.42;;;9.10;;
17753;SDS011;8999;48.994;9.150;2024-02-28T14:07:18;15.32;;;9.38;;
17753;SDS011;8999;48.994;9.150;2024-02-28T14:09:50;14.52;;;8.48;;
17753;SDS011;8999;48.994;9.150;2024-02-28T14:12:22;12.90;;;7.88;;
17753;SDS011;8999;48.994;9.150;2024-02-28T14:14:53;14.07;;;7.93;;
17753;SDS011;8999;48.994;9.150;2024-02-28T14:17:25;15.27;;;9.25;;
17753;SDS011;8999;48.994;9.150;2024-02-28T14:19:58;12.93;;;8.05;;
17753;SDS011;8999;48.994;9.150;2024-02-28T14:22:30;16.55;;;9.98;;
17753;SDS011;8999;48.994;9.150;2024-02-28T14:25:03;17.08;;;9.80;;
17753;SDS011;8999;48.994;9.150;2024-02-28T14:27:35;15.02;;;8.63;;
17753;SDS011;8999;48.994;9.150;2024-02-28T14:30:08;13.65;;;8.50;;
17753;SDS011;8999;48.994;9.150;2024-02-28T14:32:40;12.55;;;7.75;;
17753;SDS011;8999;48.994;9.150;2024-02-28T14:35:14;14.23;;;7.88;;
17753;SDS011;8999;48.994;9.150;2024-02-28T14:37:46;16.77;;;8.13;;
17753;SDS011;8999;48.994;9.150;2024-02-28T14:40:18;15.95;;;8.40;;
17753;SDS011;8999;48.994;9.150;2024-02-28T14:42:50;13.73;;;7.63;;
17753;SDS011;8999;48.994;9.150;2024-02-28T14:45:21;14.68;;;8.68;;
17753;SDS011;8999;48.994;9.150;2024-02-28T14:47:54;15.50;;;8.93;;
17753;SDS011;8999;48.994;9.150;2024-02-28T14:50:27;13.32;;;7.93;;
17753;SDS011;8999;48.994;9.150;2024-02-28T14:52:59;14.80;;;8.32;;
17753;SDS011;8999;48.994;9.150;2024-02-28T14:55:30;14.02;;;8.43;;
17753;SDS011;8999;48.994;9.150;2024-02-28T14:58:02;14.75;;;8.82;;
17753;SDS011;8999;48.994;9.150;2024-02-28T15:00:34;15.18;;;9.07;;
17753;SDS011;8999;48.994;9.150;2024-02-28T15:03:06;17.65;;;9.65;;
17753;SDS011;8999;48.994;9.150;2024-02-28T15:05:39;15.30;;;9.48;;
17753;SDS011;8999;48.994;9.150;2024-02-28T15:08:13;18.52;;;9.90;;